Time;durP1;ratioP1;P1;durP2;ratioP2;P2;SDS_P1;SDS_P2;PMS_P1;PMS_P2;Temp;Humidity;BMP_temperature;BMP_pressure;BME280_temperature;BME280_humidity;BME280_pressure;Samples;Min_cycle;Max_cycle;Signal;HPM_P1;HPM_P2
2023/07/21 00:01:09;;;;;;;;;;;12.60;64.50;;;;;;4138668;28;19913;-88
2023/07/21 00:03:10;;;;;;;;;;;12.50;65.40;;;;;;4140089;28;19948;-88
2023/07/21 00:05:11;;;;;;;;;;;12.50;66.10;;;;;;4139704;28;19917;-89
2023/07/21 00:07:12;;;;;;;;;;;12.50;65.60;;;;;;4138308;28;19953;-88
2023/07/21 00:09:12;;;;;;;;;;;12.40;65.70;;;;;;4154968;28;19913;-88
2023/07/21 00:11:13;;;;;;;;;;;12.50;65.50;;;;;;4137141;28;20035;-88
2023/07/21 00:13:14;;;;;;;;;;;12.40;65.50;;;;;;4139627;28;19953;-88
2023/07/21 00:15:20;;;;;;;;;;;12.40;65.50;;;;;;4137439;28;19972;-87
2023/07/21 00:17:21;;;;;;;;;;;12.30;65.00;;;;;;4137077;28;19921;-88
2023/07/21 00:19:21;;;;;;;;;;;12.30;65.50;;;;;;4138262;28;19988;-88
2023/07/21 00:21:22;;;;;;;;;;;12.30;65.20;;;;;;4141448;28;19917;-88
2023/07/21 00:23:24;;;;;;;;;;;12.30;66.10;;;;;;4140194;28;20004;-89
2023/07/21 00:25:24;;;;;;;;;;;12.30;65.80;;;;;;4142234;28;19928;-87
2023/07/21 00:27:25;;;;;;;;;;;12.30;65.70;;;;;;4135484;28;19917;-88
2023/07/21 00:29:25;;;;;;;;;;;12.30;65.70;;;;;;4138517;28;19914;-88
2023/07/21 00:31:26;;;;;;;;;;;12.30;66.60;;;;;;4128435;28;19913;-88
2023/07/21 00:33:26;;;;;;;;;;;12.20;66.90;;;;;;4138003;28;20406;-88
2023/07/21 00:35:27;;;;;;;;;;;12.10;66.80;;;;;;4138187;28;19917;-88
2023/07/21 00:37:28;;;;;;;;;;;12.20;66.80;;;;;;4154030;28;19965;-89
2023/07/21 00:39:28;;;;;;;;;;;12.10;66.80;;;;;;4140326;28;19918;-89
2023/07/21 00:41:29;;;;;;;;;;;12.20;66.10;;;;;;4137299;28;20010;-88
2023/07/21 00:43:29;;;;;;;;;;;12.20;66.30;;;;;;4140097;28;19913;-88
2023/07/21 00:45:34;;;;;;;;;;;12.10;66.70;;;;;;4138702;28;19928;-89
2023/07/21 00:47:35;;;;;;;;;;;12.10;66.20;;;;;;4135815;28;19917;-89
2023/07/21 00:49:37;;;;;;;;;;;12.20;66.50;;;;;;4136559;28;19914;-88
2023/07/21 00:51:39;;;;;;;;;;;12.00;66.40;;;;;;4137511;28;19917;-88
2023/07/21 00:53:40;;;;;;;;;;;12.10;66.40;;;;;;4140320;28;20368;-89
2023/07/21 00:55:46;;;;;;;;;;;12.10;67.40;;;;;;4137768;28;19914;-88
2023/07/21 00:57:46;;;;;;;;;;;12.10;67.20;;;;;;4133772;28;19921;-88
2023/07/21 00:59:47;;;;;;;;;;;12.10;66.90;;;;;;4138812;28;21901;-89
2023/07/21 01:01:48;;;;;;;;;;;12.00;67.90;;;;;;4137126;28;19929;-89
2023/07/21 01:03:48;;;;;;;;;;;12.10;67.90;;;;;;4135633;28;19921;-89
2023/07/21 01:05:52;;;;;;;;;;;12.10;68.00;;;;;;4132850;28;19921;-89
2023/07/21 01:07:53;;;;;;;;;;;12.10;67.60;;;;;;4137791;28;19917;-88
2023/07/21 01:09:54;;;;;;;;;;;12.00;67.80;;;;;;4137360;28;19920;-88
2023/07/21 01:11:54;;;;;;;;;;;12.00;68.00;;;;;;4137488;28;19922;-88
2023/07/21 01:13:56;;;;;;;;;;;11.90;69.10;;;;;;4127646;28;19926;-88
2023/07/21 01:15:57;;;;;;;;;;;12.00;68.50;;;;;;4138595;28;19917;-88
2023/07/21 01:18:00;;;;;;;;;;;11.90;69.10;;;;;;4137444;28;19922;-88
2023/07/21 01:20:04;;;;;;;;;;;11.90;69.10;;;;;;4140240;28;20106;-89
2023/07/21 01:22:17;;;;;;;;;;;11.90;69.40;;;;;;4140883;28;19913;-89
2023/07/21 01:24:36;;;;;;;;;;;11.90;68.90;;;;;;4159658;28;20056;-88
2023/07/21 01:26:40;;;;;;;;;;;11.90;68.80;;;;;;4161151;28;19928;-88
2023/07/21 01:28:42;;;;;;;;;;;11.90;69.70;;;;;;4160468;28;19913;-88
2023/07/21 01:30:45;;;;;;;;;;;11.90;69.80;;;;;;4165254;28;19922;-88
2023/07/21 01:32:48;;;;;;;;;;;11.90;69.20;;;;;;4163411;28;19917;-89
2023/07/21 01:34:49;;;;;;;;;;;11.80;70.50;;;;;;4161581;28;19913;-88
2023/07/21 01:36:52;;;;;;;;;;;11.90;70.70;;;;;;4158653;28;20107;-89
2023/07/21 01:38:53;;;;;;;;;;;11.90;70.50;;;;;;4156655;28;19925;-88
2023/07/21 01:40:54;;;;;;;;;;;11.90;70.40;;;;;;4144472;28;19913;-88
2023/07/21 01:42:55;;;;;;;;;;;11.90;70.30;;;;;;4139062;28;19972;-90
2023/07/21 01:44:56;;;;;;;;;;;11.90;70.50;;;;;;4160599;28;19917;-89
2023/07/21 01:46:57;;;;;;;;;;;12.00;70.80;;;;;;4173896;28;19928;-89
2023/07/21 01:48:58;;;;;;;;;;;11.90;70.60;;;;;;4142315;28;19921;-89
2023/07/21 01:50:59;;;;;;;;;;;11.90;70.60;;;;;;4142668;28;19913;-89
2023/07/21 01:53:01;;;;;;;;;;;12.00;70.90;;;;;;4139822;28;19921;-89
2023/07/21 01:55:12;;;;;;;;;;;12.00;71.10;;;;;;4155210;28;20394;-89
2023/07/21 01:57:15;;;;;;;;;;;11.90;70.70;;;;;;4140835;28;19921;-88
2023/07/21 01:59:17;;;;;;;;;;;11.90;70.50;;;;;;4154997;28;20584;-89
2023/07/21 02:01:19;;;;;;;;;;;11.90;70.60;;;;;;4140784;28;20449;-88
2023/07/21 02:03:21;;;;;;;;;;;12.00;71.90;;;;;;4137558;28;19917;-89
2023/07/21 02:05:22;;;;;;;;;;;11.90;71.60;;;;;;4140955;28;19921;-89
2023/07/21 02:07:23;;;;;;;;;;;12.00;71.50;;;;;;4141456;28;20427;-88
2023/07/21 02:09:24;;;;;;;;;;;11.90;71.10;;;;;;4139383;28;19928;-88
2023/07/21 02:11:24;;;;;;;;;;;12.00;71.60;;;;;;4142036;28;20395;-88
2023/07/21 02:13:25;;;;;;;;;;;12.00;71.10;;;;;;4153312;28;19963;-88
2023/07/21 02:15:25;;;;;;;;;;;12.00;71.00;;;;;;4140041;28;19921;-88
2023/07/21 02:17:26;;;;;;;;;;;12.00;70.30;;;;;;4140373;28;19964;-88
2023/07/21 02:19:26;;;;;;;;;;;12.00;70.70;;;;;;4139780;28;20019;-89
2023/07/21 02:21:27;;;;;;;;;;;12.00;70.70;;;;;;4138869;28;19921;-88
2023/07/21 02:23:27;;;;;;;;;;;12.00;70.20;;;;;;4137094;28;20256;-88
2023/07/21 02:25:28;;;;;;;;;;;12.20;69.70;;;;;;4141676;28;19921;-88
2023/07/21 02:27:29;;;;;;;;;;;12.20;69.20;;;;;;4138368;28;19922;-87
2023/07/21 02:29:30;;;;;;;;;;;12.20;69.50;;;;;;4139724;28;19928;-88
2023/07/21 02:31:33;;;;;;;;;;;12.20;69.90;;;;;;4136752;28;19969;-88
2023/07/21 02:33:34;;;;;;;;;;;12.10;69.60;;;;;;4137853;28;19914;-88
2023/07/21 02:35:34;;;;;;;;;;;12.20;69.90;;;;;;4136828;28;20008;-87
2023/07/21 02:37:36;;;;;;;;;;;12.20;69.50;;;;;;4153238;28;19917;-88
2023/07/21 02:39:36;;;;;;;;;;;12.20;69.00;;;;;;4138624;28;19924;-88
2023/07/21 02:41:37;;;;;;;;;;;12.20;68.90;;;;;;4138400;28;19921;-88
2023/07/21 02:43:38;;;;;;;;;;;12.20;68.90;;;;;;4138275;28;19921;-88
2023/07/21 02:45:38;;;;;;;;;;;12.20;69.30;;;;;;4136945;28;19921;-88
2023/07/21 02:47:39;;;;;;;;;;;12.20;69.50;;;;;;4138926;28;20338;-88
2023/07/21 02:49:40;;;;;;;;;;;12.20;71.30;;;;;;4140529;28;20359;-88
2023/07/21 02:51:41;;;;;;;;;;;12.20;70.80;;;;;;4139099;28;19921;-88
2023/07/21 02:53:41;;;;;;;;;;;12.20;70.60;;;;;;4154553;28;20266;-89
2023/07/21 02:55:42;;;;;;;;;;;12.20;71.20;;;;;;4154733;28;19914;-88
2023/07/21 02:57:43;;;;;;;;;;;12.30;71.40;;;;;;4136576;28;19924;-88
2023/07/21 02:59:43;;;;;;;;;;;12.30;71.20;;;;;;4141190;28;19918;-89
2023/07/21 03:01:54;;;;;;;;;;;12.30;71.40;;;;;;4138482;28;19952;-88
2023/07/21 03:03:55;;;;;;;;;;;12.20;71.50;;;;;;4136222;28;19913;-89
2023/07/21 03:05:56;;;;;;;;;;;12.30;72.00;;;;;;4140127;28;20437;-89
2023/07/21 03:07:57;;;;;;;;;;;12.20;71.80;;;;;;4135813;28;19964;-89
2023/07/21 03:09:57;;;;;;;;;;;12.20;71.80;;;;;;4142360;28;19921;-89
2023/07/21 03:11:59;;;;;;;;;;;12.20;71.70;;;;;;4138473;28;19917;-88
2023/07/21 03:14:00;;;;;;;;;;;12.20;71.70;;;;;;4135701;28;19921;-88
2023/07/21 03:16:02;;;;;;;;;;;12.20;72.00;;;;;;4138567;28;20391;-89
2023/07/21 03:18:03;;;;;;;;;;;12.30;72.20;;;;;;4137223;28;20387;-88
2023/07/21 03:20:10;;;;;;;;;;;12.30;72.00;;;;;;4138923;28;19925;-89
2023/07/21 03:22:15;;;;;;;;;;;12.30;71.60;;;;;;4136971;28;21387;-89
2023/07/21 03:24:16;;;;;;;;;;;12.30;72.50;;;;;;4135540;28;20365;-89
2023/07/21 03:26:17;;;;;;;;;;;12.20;72.30;;;;;;4135694;28;19963;-88
2023/07/21 03:28:17;;;;;;;;;;;12.20;72.20;;;;;;4138946;28;20254;-88
2023/07/21 03:30:18;;;;;;;;;;;12.30;71.90;;;;;;4138227;28;20405;-88
2023/07/21 03:32:19;;;;;;;;;;;12.40;72.20;;;;;;4139087;28;19921;-89
2023/07/21 03:34:20;;;;;;;;;;;12.30;72.10;;;;;;4134849;28;19922;-89
2023/07/21 03:36:21;;;;;;;;;;;12.40;72.30;;;;;;4137440;28;19925;-87
2023/07/21 03:38:24;;;;;;;;;;;12.30;72.00;;;;;;4138440;28;19953;-88
2023/07/21 03:40:25;;;;;;;;;;;12.30;71.90;;;;;;4149827;28;20362;-89
2023/07/21 03:42:26;;;;;;;;;;;12.40;71.70;;;;;;4138375;28;19924;-89
2023/07/21 03:44:26;;;;;;;;;;;12.40;71.30;;;;;;4139770;28;20092;-88
2023/07/21 03:46:27;;;;;;;;;;;12.40;71.40;;;;;;4138297;28;19918;-88
2023/07/21 03:48:28;;;;;;;;;;;12.30;71.30;;;;;;4138415;28;20019;-88
2023/07/21 03:50:29;;;;;;;;;;;12.50;71.20;;;;;;4138770;28;20279;-89
2023/07/21 03:52:29;;;;;;;;;;;12.40;71.10;;;;;;4138410;28;19997;-88
2023/07/21 03:54:30;;;;;;;;;;;12.40;71.10;;;;;;4137354;28;20004;-89
2023/07/21 03:56:31;;;;;;;;;;;12.50;71.30;;;;;;4138143;28;19918;-87
2023/07/21 03:58:31;;;;;;;;;;;12.50;71.60;;;;;;4137458;28;19928;-88
2023/07/21 04:00:37;;;;;;;;;;;12.40;71.60;;;;;;4138615;28;19976;-88
2023/07/21 04:02:37;;;;;;;;;;;12.60;71.70;;;;;;4137742;28;20287;-89
2023/07/21 04:04:38;;;;;;;;;;;12.60;71.60;;;;;;4139706;28;19933;-88
2023/07/21 04:06:38;;;;;;;;;;;12.60;72.50;;;;;;4138326;28;19917;-88
2023/07/21 04:08:40;;;;;;;;;;;12.60;71.70;;;;;;4140412;28;19909;-89
2023/07/21 04:10:44;;;;;;;;;;;12.60;72.00;;;;;;4137361;28;20048;-89
2023/07/21 04:12:44;;;;;;;;;;;12.70;72.20;;;;;;4137729;28;19926;-88
2023/07/21 04:14:45;;;;;;;;;;;12.60;72.20;;;;;;4137003;28;19921;-88
2023/07/21 04:16:45;;;;;;;;;;;12.70;72.50;;;;;;4137000;28;19986;-88
2023/07/21 04:18:46;;;;;;;;;;;12.70;72.50;;;;;;4137214;28;20040;-87
2023/07/21 04:20:50;;;;;;;;;;;12.70;72.40;;;;;;4136840;28;19949;-88
2023/07/21 04:22:51;;;;;;;;;;;12.70;72.20;;;;;;4135623;28;19929;-89
2023/07/21 04:24:51;;;;;;;;;;;12.70;72.00;;;;;;4144227;28;20425;-87
2023/07/21 04:26:52;;;;;;;;;;;12.80;71.90;;;;;;4153819;28;19925;-88
2023/07/21 04:28:52;;;;;;;;;;;12.80;72.10;;;;;;4150406;28;20008;-88
2023/07/21 04:30:53;;;;;;;;;;;12.80;72.40;;;;;;4140606;28;19917;-88
2023/07/21 04:32:57;;;;;;;;;;;12.80;72.20;;;;;;4141517;28;20379;-88
2023/07/21 04:34:57;;;;;;;;;;;12.80;72.20;;;;;;4141002;28;20037;-88
2023/07/21 04:36:59;;;;;;;;;;;12.80;72.00;;;;;;4142331;28;19918;-89
2023/07/21 04:39:03;;;;;;;;;;;12.80;72.10;;;;;;4144685;28;19940;-87
2023/07/21 04:41:04;;;;;;;;;;;12.80;72.40;;;;;;4142417;28;20018;-89
2023/07/21 04:43:04;;;;;;;;;;;12.90;72.80;;;;;;4131493;28;19921;-89
2023/07/21 04:45:11;;;;;;;;;;;12.90;73.10;;;;;;4136910;28;19913;-89
2023/07/21 04:47:11;;;;;;;;;;;12.90;72.80;;;;;;4132191;28;20084;-88
2023/07/21 04:49:13;;;;;;;;;;;12.90;72.50;;;;;;4134627;28;19997;-88
2023/07/21 04:51:14;;;;;;;;;;;12.90;72.60;;;;;;4133068;28;19936;-88
2023/07/21 04:53:17;;;;;;;;;;;13.00;73.20;;;;;;4135451;28;20391;-89
2023/07/21 04:55:18;;;;;;;;;;;13.00;72.90;;;;;;4137463;28;20144;-88
2023/07/21 04:57:18;;;;;;;;;;;13.00;72.70;;;;;;4135574;28;19936;-89
2023/07/21 04:59:19;;;;;;;;;;;13.00;72.60;;;;;;4135316;28;19922;-88
2023/07/21 05:01:20;;;;;;;;;;;13.10;72.60;;;;;;4135246;28;19929;-89
2023/07/21 05:03:20;;;;;;;;;;;13.10;72.70;;;;;;4137437;28;19968;-88
2023/07/21 05:05:21;;;;;;;;;;;13.10;73.20;;;;;;4135605;28;20936;-89
2023/07/21 05:07:21;;;;;;;;;;;13.20;73.50;;;;;;4137208;28;19941;-89
2023/07/21 05:09:22;;;;;;;;;;;13.20;73.50;;;;;;4136829;28;20009;-89
2023/07/21 05:11:22;;;;;;;;;;;13.30;73.70;;;;;;4139398;28;19924;-89
2023/07/21 05:13:23;;;;;;;;;;;13.30;73.50;;;;;;4136737;28;20530;-89
2023/07/21 05:15:24;;;;;;;;;;;13.50;73.70;;;;;;4135308;28;19960;-89
2023/07/21 05:17:26;;;;;;;;;;;13.50;73.70;;;;;;4140004;28;20291;-87
2023/07/21 05:19:27;;;;;;;;;;;13.60;75.00;;;;;;4136639;28;20024;-90
2023/07/21 05:21:27;;;;;;;;;;;13.60;75.30;;;;;;4135578;28;19953;-89
2023/07/21 05:23:29;;;;;;;;;;;13.70;76.10;;;;;;4137522;28;20319;-88
2023/07/21 05:25:29;;;;;;;;;;;13.70;75.50;;;;;;4137947;28;20407;-89
2023/07/21 05:27:30;;;;;;;;;;;13.80;74.80;;;;;;4138838;28;20043;-89
2023/07/21 05:29:31;;;;;;;;;;;13.90;74.40;;;;;;4148914;28;19920;-89
2023/07/21 05:31:33;;;;;;;;;;;13.90;74.40;;;;;;4134213;28;19913;-89
2023/07/21 05:33:34;;;;;;;;;;;13.90;75.00;;;;;;4138037;28;19917;-89
2023/07/21 05:35:35;;;;;;;;;;;14.00;74.50;;;;;;4132980;28;20368;-89
2023/07/21 05:37:35;;;;;;;;;;;14.10;74.40;;;;;;4138854;28;19928;-89
2023/07/21 05:39:36;;;;;;;;;;;14.10;74.40;;;;;;4135298;28;19922;-90
2023/07/21 05:41:36;;;;;;;;;;;14.10;74.40;;;;;;4138548;28;19953;-90
2023/07/21 05:43:37;;;;;;;;;;;14.10;74.60;;;;;;4132339;28;19933;-89
2023/07/21 05:45:38;;;;;;;;;;;14.10;74.50;;;;;;4138591;28;20000;-90
2023/07/21 05:47:39;;;;;;;;;;;14.20;74.10;;;;;;4150939;28;19921;-89
2023/07/21 05:49:40;;;;;;;;;;;14.30;74.30;;;;;;4136836;28;19921;-89
2023/07/21 05:51:40;;;;;;;;;;;14.20;73.50;;;;;;4135319;28;19921;-89
2023/07/21 05:53:41;;;;;;;;;;;14.30;73.40;;;;;;4139692;28;19913;-89
2023/07/21 05:55:44;;;;;;;;;;;14.40;73.50;;;;;;4139190;28;20323;-90
2023/07/21 05:57:45;;;;;;;;;;;14.30;72.80;;;;;;4139267;28;20004;-88
2023/07/21 05:59:45;;;;;;;;;;;14.40;72.50;;;;;;4135853;28;19964;-88
2023/07/21 06:01:51;;;;;;;;;;;14.40;72.90;;;;;;4128352;28;19921;-88
2023/07/21 06:03:52;;;;;;;;;;;14.40;72.80;;;;;;4134965;28;20012;-88
2023/07/21 06:05:52;;;;;;;;;;;14.50;72.60;;;;;;4134673;28;19965;-88
2023/07/21 06:07:53;;;;;;;;;;;14.60;72.60;;;;;;4140081;28;19935;-89
2023/07/21 06:09:54;;;;;;;;;;;14.50;72.30;;;;;;4142568;28;19920;-90
2023/07/21 06:11:55;;;;;;;;;;;14.60;72.30;;;;;;4138893;28;19913;-88
2023/07/21 06:13:55;;;;;;;;;;;14.60;71.90;;;;;;4135653;28;19943;-88
2023/07/21 06:15:56;;;;;;;;;;;14.60;71.90;;;;;;4153886;28;19913;-89
2023/07/21 06:17:57;;;;;;;;;;;14.60;71.90;;;;;;4140577;28;19956;-88
2023/07/21 06:19:57;;;;;;;;;;;14.70;72.10;;;;;;4140402;28;19923;-88
2023/07/21 06:21:58;;;;;;;;;;;14.70;72.00;;;;;;4138284;28;19917;-88
2023/07/21 06:23:58;;;;;;;;;;;14.70;72.20;;;;;;4137973;28;20363;-90
2023/07/21 06:25:59;;;;;;;;;;;14.70;72.20;;;;;;4140207;28;20298;-89
2023/07/21 06:28:00;;;;;;;;;;;14.70;71.90;;;;;;4136652;28;19918;-88
2023/07/21 06:30:00;;;;;;;;;;;14.80;71.80;;;;;;4135732;28;19917;-89
2023/07/21 06:32:01;;;;;;;;;;;14.80;71.90;;;;;;4134693;28;19957;-89
2023/07/21 06:34:02;;;;;;;;;;;14.90;72.40;;;;;;4137673;28;20632;-89
2023/07/21 06:36:02;;;;;;;;;;;14.90;71.80;;;;;;4137974;28;20021;-88
2023/07/21 06:38:03;;;;;;;;;;;14.90;71.30;;;;;;4137253;28;19925;-89
2023/07/21 06:40:05;;;;;;;;;;;14.90;71.90;;;;;;4139605;28;19972;-89
2023/07/21 06:42:07;;;;;;;;;;;15.00;71.00;;;;;;4136994;28;19928;-88
2023/07/21 06:44:08;;;;;;;;;;;15.00;71.20;;;;;;4137901;28;19917;-88
2023/07/21 06:46:09;;;;;;;;;;;15.00;71.20;;;;;;4153696;28;20015;-88
2023/07/21 06:48:12;;;;;;;;;;;15.10;71.80;;;;;;4126837;28;22548;-90
2023/07/21 06:50:16;;;;;;;;;;;15.10;71.50;;;;;;4135651;28;20463;-89
2023/07/21 06:52:16;;;;;;;;;;;15.20;71.50;;;;;;4133398;28;20466;-89
2023/07/21 06:54:20;;;;;;;;;;;15.20;71.20;;;;;;4130891;28;19926;-88
2023/07/21 06:56:21;;;;;;;;;;;15.20;71.20;;;;;;4133977;28;19924;-88
2023/07/21 06:58:22;;;;;;;;;;;15.30;71.00;;;;;;4132365;28;19921;-89
2023/07/21 07:00:23;;;;;;;;;;;15.30;71.00;;;;;;4134612;28;19939;-89
2023/07/21 07:02:24;;;;;;;;;;;15.30;71.10;;;;;;4135100;28;20544;-89
2023/07/21 07:04:25;;;;;;;;;;;15.40;70.80;;;;;;4130392;28;19922;-87
2023/07/21 07:06:28;;;;;;;;;;;15.40;70.50;;;;;;4138045;28;19917;-90
2023/07/21 07:08:29;;;;;;;;;;;15.50;70.30;;;;;;4148885;28;19939;-88
2023/07/21 07:10:29;;;;;;;;;;;15.40;70.60;;;;;;4158530;28;19906;-91
2023/07/21 07:12:30;;;;;;;;;;;15.40;70.40;;;;;;4155650;28;19922;-89
2023/07/21 07:14:30;;;;;;;;;;;15.50;70.90;;;;;;4138207;28;20669;-89
2023/07/21 07:16:31;;;;;;;;;;;15.50;70.50;;;;;;4134480;28;20433;-89
2023/07/21 07:18:32;;;;;;;;;;;15.60;70.60;;;;;;4130983;28;20383;-89
2023/07/21 07:20:32;;;;;;;;;;;15.60;70.10;;;;;;4137272;28;20351;-89
2023/07/21 07:22:33;;;;;;;;;;;15.60;70.40;;;;;;4132770;28;20391;-90
2023/07/21 07:24:34;;;;;;;;;;;15.60;70.20;;;;;;4135348;28;20368;-89
2023/07/21 07:26:34;;;;;;;;;;;15.70;70.30;;;;;;4134845;28;19921;-88
2023/07/21 07:28:35;;;;;;;;;;;15.70;70.30;;;;;;4141419;28;20370;-89
2023/07/21 07:30:38;;;;;;;;;;;15.80;70.10;;;;;;4129468;28;20410;-89
2023/07/21 07:32:45;;;;;;;;;;;15.80;69.90;;;;;;4134207;28;19924;-89
2023/07/21 07:34:46;;;;;;;;;;;15.90;69.80;;;;;;4133936;28;20458;-88
2023/07/21 07:36:47;;;;;;;;;;;15.90;69.40;;;;;;4134935;28;20426;-89
2023/07/21 07:38:47;;;;;;;;;;;15.90;69.20;;;;;;4129593;28;20052;-89
2023/07/21 07:40:48;;;;;;;;;;;16.00;69.10;;;;;;4133070;28;20447;-89
2023/07/21 07:42:49;;;;;;;;;;;16.00;69.00;;;;;;4131676;28;20382;-89
2023/07/21 07:44:50;;;;;;;;;;;16.00;68.70;;;;;;4137352;28;19917;-89
2023/07/21 07:46:54;;;;;;;;;;;16.10;68.60;;;;;;4130813;28;19926;-88
2023/07/21 07:48:55;;;;;;;;;;;16.10;68.50;;;;;;4135907;28;20031;-88
2023/07/21 07:50:56;;;;;;;;;;;16.20;68.60;;;;;;4134727;28;19914;-89
2023/07/21 07:52:59;;;;;;;;;;;16.10;68.30;;;;;;4134773;28;20647;-87
2023/07/21 07:55:00;;;;;;;;;;;16.20;68.10;;;;;;4138928;28;20378;-89
2023/07/21 07:57:01;;;;;;;;;;;16.20;67.90;;;;;;4132876;28;19923;-89
2023/07/21 07:59:04;;;;;;;;;;;16.20;67.70;;;;;;4132649;28;19968;-88
2023/07/21 08:01:05;;;;;;;;;;;16.30;67.70;;;;;;4135098;28;20391;-88
2023/07/21 08:03:06;;;;;;;;;;;16.30;67.70;;;;;;4146146;28;19917;-89
2023/07/21 08:05:07;;;;;;;;;;;16.40;67.70;;;;;;4130050;28;19914;-89
2023/07/21 08:07:07;;;;;;;;;;;16.40;67.80;;;;;;4142995;28;21308;-89
2023/07/21 08:09:09;;;;;;;;;;;16.50;67.80;;;;;;4133600;28;20413;-89
2023/07/21 08:11:16;;;;;;;;;;;16.50;67.80;;;;;;4135910;28;19921;-91
2023/07/21 08:13:21;;;;;;;;;;;16.50;67.60;;;;;;4134423;28;20044;-88
2023/07/21 08:15:28;;;;;;;;;;;16.60;67.50;;;;;;4131998;28;19972;-89
2023/07/21 08:17:28;;;;;;;;;;;16.60;67.30;;;;;;4132882;28;19922;-89
2023/07/21 08:19:32;;;;;;;;;;;16.70;67.20;;;;;;4130662;28;20434;-88
2023/07/21 08:21:32;;;;;;;;;;;16.70;67.00;;;;;;4131292;28;20012;-89
2023/07/21 08:23:33;;;;;;;;;;;16.80;67.00;;;;;;4148229;28;20484;-89
2023/07/21 08:25:33;;;;;;;;;;;16.80;66.90;;;;;;4129499;28;19917;-88
2023/07/21 08:27:37;;;;;;;;;;;16.90;67.00;;;;;;4130044;28;20355;-89
2023/07/21 08:29:38;;;;;;;;;;;16.90;66.90;;;;;;4134283;28;19921;-88
2023/07/21 08:31:38;;;;;;;;;;;16.90;66.90;;;;;;4135511;28;20024;-89
2023/07/21 08:33:39;;;;;;;;;;;17.00;67.00;;;;;;4148266;28;19985;-89
2023/07/21 08:35:40;;;;;;;;;;;17.10;66.90;;;;;;4161831;28;19910;-90
2023/07/21 08:37:44;;;;;;;;;;;17.20;67.00;;;;;;4159610;28;19914;-89
2023/07/21 08:39:44;;;;;;;;;;;17.20;66.90;;;;;;4153943;28;19924;-90
2023/07/21 08:41:46;;;;;;;;;;;17.20;66.60;;;;;;4155695;28;19906;-90
2023/07/21 08:43:48;;;;;;;;;;;17.30;66.40;;;;;;4146872;28;19932;-89
2023/07/21 08:45:49;;;;;;;;;;;17.40;66.50;;;;;;4125867;28;19956;-89
2023/07/21 08:47:50;;;;;;;;;;;17.40;66.10;;;;;;4147464;28;20590;-89
2023/07/21 08:49:50;;;;;;;;;;;17.50;65.20;;;;;;4142975;28;19917;-89
2023/07/21 08:51:51;;;;;;;;;;;17.50;65.60;;;;;;4137597;28;20032;-88
2023/07/21 08:53:51;;;;;;;;;;;17.60;65.60;;;;;;4133704;28;20431;-89
2023/07/21 08:55:59;;;;;;;;;;;17.70;65.50;;;;;;4137635;28;19992;-89
2023/07/21 08:58:00;;;;;;;;;;;17.70;65.40;;;;;;4135654;28;19920;-89
2023/07/21 09:00:02;;;;;;;;;;;17.80;64.80;;;;;;4135797;28;19918;-90
2023/07/21 09:02:02;;;;;;;;;;;17.80;64.90;;;;;;4132732;28;19917;-89
2023/07/21 09:04:15;;;;;;;;;;;17.90;64.80;;;;;;4131836;28;19918;-89
2023/07/21 09:06:16;;;;;;;;;;;17.90;64.70;;;;;;4134612;28;19929;-88
2023/07/21 09:08:23;;;;;;;;;;;18.00;64.70;;;;;;4136088;28;20272;-87
2023/07/21 09:10:31;;;;;;;;;;;18.00;64.10;;;;;;4137184;28;20142;-88
2023/07/21 09:12:35;;;;;;;;;;;18.10;64.20;;;;;;4134330;28;19921;-88
2023/07/21 09:14:37;;;;;;;;;;;18.20;64.00;;;;;;4132519;28;20213;-87
2023/07/21 09:16:39;;;;;;;;;;;18.20;64.20;;;;;;4132872;28;19929;-89
2023/07/21 09:18:43;;;;;;;;;;;18.30;63.30;;;;;;4125691;28;19918;-88
2023/07/21 09:20:47;;;;;;;;;;;18.30;63.00;;;;;;4137108;28;19914;-88
2023/07/21 09:22:48;;;;;;;;;;;18.40;63.00;;;;;;4151826;28;19921;-89
2023/07/21 09:24:50;;;;;;;;;;;18.40;62.90;;;;;;4132494;28;20642;-86
2023/07/21 09:27:08;;;;;;;;;;;18.50;62.90;;;;;;4135280;28;19917;-87
2023/07/21 09:29:16;;;;;;;;;;;18.60;62.60;;;;;;4131367;28;19913;-86
2023/07/21 09:31:33;;;;;;;;;;;18.60;62.60;;;;;;4133121;28;19972;-87
2023/07/21 09:33:38;;;;;;;;;;;18.70;62.50;;;;;;4126714;28;20004;-87
2023/07/21 09:35:41;;;;;;;;;;;18.80;61.70;;;;;;4138966;28;20008;-86
2023/07/21 09:37:42;;;;;;;;;;;18.80;61.40;;;;;;4138176;28;20012;-88
2023/07/21 09:39:43;;;;;;;;;;;18.90;61.90;;;;;;4140068;28;20264;-88
2023/07/21 09:41:44;;;;;;;;;;;19.00;61.70;;;;;;4137846;28;20036;-87
2023/07/21 09:43:44;;;;;;;;;;;19.00;60.70;;;;;;4147415;28;20525;-88
2023/07/21 09:45:45;;;;;;;;;;;19.10;59.60;;;;;;4134925;28;19921;-89
2023/07/21 09:47:48;;;;;;;;;;;19.10;59.90;;;;;;4137251;28;20291;-89
2023/07/21 09:49:50;;;;;;;;;;;19.20;58.90;;;;;;4138404;28;19913;-86
2023/07/21 09:51:51;;;;;;;;;;;19.20;59.40;;;;;;4134002;28;20074;-88
2023/07/21 09:53:52;;;;;;;;;;;19.30;59.70;;;;;;4140171;28;19944;-88
2023/07/21 09:55:54;;;;;;;;;;;19.30;57.90;;;;;;4138373;28;19913;-86
2023/07/21 09:57:55;;;;;;;;;;;19.40;58.60;;;;;;4155098;28;19909;-89
2023/07/21 09:59:57;;;;;;;;;;;19.40;59.10;;;;;;4158325;28;20111;-87
2023/07/21 10:01:57;;;;;;;;;;;19.40;59.40;;;;;;4154037;28;19921;-87
2023/07/21 10:03:58;;;;;;;;;;;19.50;59.80;;;;;;4153476;28;19917;-86
2023/07/21 10:06:01;;;;;;;;;;;19.50;59.70;;;;;;4136705;28;20012;-87
2023/07/21 10:08:03;;;;;;;;;;;19.60;59.70;;;;;;4148586;28;19917;-87
2023/07/21 10:10:05;;;;;;;;;;;19.60;59.60;;;;;;4137826;28;19913;-87
2023/07/21 10:12:07;;;;;;;;;;;19.70;58.90;;;;;;4135436;28;19969;-88
2023/07/21 10:14:28;;;;;;;;;;;19.70;59.20;;;;;;4135167;28;19932;-87
2023/07/21 10:16:30;;;;;;;;;;;19.70;58.90;;;;;;4128479;28;19990;-87
2023/07/21 10:18:33;;;;;;;;;;;19.80;58.80;;;;;;4139197;28;20284;-88
2023/07/21 10:20:49;;;;;;;;;;;19.70;57.60;;;;;;4140333;28;20305;-88
2023/07/21 10:22:56;;;;;;;;;;;19.80;57.60;;;;;;4134177;28;19917;-88
2023/07/21 10:24:56;;;;;;;;;;;19.90;57.90;;;;;;4132566;28;20322;-88
2023/07/21 10:27:00;;;;;;;;;;;19.90;56.80;;;;;;4138327;28;19922;-87
2023/07/21 10:29:14;;;;;;;;;;;20.00;55.20;;;;;;4138684;28;19917;-87
2023/07/21 10:33:28;;;;;;;;;;;20.10;56.50;;;;;;4136833;28;20016;-88
2023/07/21 10:35:36;;;;;;;;;;;20.10;52.10;;;;;;4139572;28;19964;-86
2023/07/21 10:37:37;;;;;;;;;;;20.20;52.90;;;;;;4151154;28;19917;-87
2023/07/21 10:39:41;;;;;;;;;;;20.20;53.10;;;;;;4134330;28;19999;-88
2023/07/21 10:41:43;;;;;;;;;;;20.20;51.30;;;;;;4131817;28;20090;-90
2023/07/21 10:43:43;;;;;;;;;;;20.10;51.50;;;;;;4130330;28;19918;-87
2023/07/21 10:45:49;;;;;;;;;;;20.10;51.20;;;;;;4133554;28;20341;-86
2023/07/21 10:47:49;;;;;;;;;;;20.00;51.00;;;;;;4136707;28;19914;-86
2023/07/21 10:49:53;;;;;;;;;;;20.00;51.10;;;;;;4136980;28;20318;-87
2023/07/21 10:51:57;;;;;;;;;;;19.90;52.70;;;;;;4135836;28;19917;-88
2023/07/21 10:53:57;;;;;;;;;;;19.90;52.70;;;;;;4138199;28;19922;-88
2023/07/21 10:56:07;;;;;;;;;;;19.80;51.20;;;;;;4134810;28;21713;-86
2023/07/21 10:58:08;;;;;;;;;;;19.80;51.50;;;;;;4129818;28;19925;-88
2023/07/21 11:00:12;;;;;;;;;;;19.70;51.60;;;;;;4138492;28;19960;-86
2023/07/21 11:02:12;;;;;;;;;;;19.60;50.90;;;;;;4135806;28;20014;-87
2023/07/21 11:04:16;;;;;;;;;;;19.60;50.90;;;;;;4134797;28;19921;-88
2023/07/21 11:06:22;;;;;;;;;;;19.50;52.50;;;;;;4127521;28;19921;-85
2023/07/21 11:08:26;;;;;;;;;;;19.50;52.20;;;;;;4127703;28;19960;-87
2023/07/21 11:10:36;;;;;;;;;;;19.50;53.10;;;;;;4124893;28;19922;-86
2023/07/21 11:12:48;;;;;;;;;;;19.50;53.50;;;;;;4128559;28;19937;-86
2023/07/21 11:14:54;;;;;;;;;;;19.40;53.90;;;;;;4127712;28;20123;-86
2023/07/21 11:17:01;;;;;;;;;;;19.40;53.90;;;;;;4129053;28;19914;-86
2023/07/21 11:19:03;;;;;;;;;;;19.40;54.20;;;;;;4125501;28;20330;-86
2023/07/21 11:21:03;;;;;;;;;;;19.40;54.20;;;;;;4128311;28;19918;-87
2023/07/21 11:23:04;;;;;;;;;;;19.50;54.30;;;;;;4125726;28;19961;-88
2023/07/21 11:25:11;;;;;;;;;;;19.40;54.50;;;;;;4144632;28;19974;-87
2023/07/21 11:27:13;;;;;;;;;;;19.50;54.70;;;;;;4132530;28;19917;-87
2023/07/21 11:29:16;;;;;;;;;;;19.40;54.60;;;;;;4133328;28;19924;-87
2023/07/21 11:31:20;;;;;;;;;;;19.50;54.80;;;;;;4132459;28;20013;-88
2023/07/21 11:33:21;;;;;;;;;;;19.50;54.90;;;;;;4134710;28;20011;-88
2023/07/21 11:35:30;;;;;;;;;;;19.50;55.20;;;;;;4152699;28;20005;-89
2023/07/21 11:37:46;;;;;;;;;;;19.50;55.20;;;;;;4134647;28;20395;-89
2023/07/21 11:39:56;;;;;;;;;;;19.60;55.20;;;;;;4133743;28;19920;-88
2023/07/21 11:41:57;;;;;;;;;;;19.50;54.70;;;;;;4131978;28;19928;-89
2023/07/21 11:43:58;;;;;;;;;;;19.70;54.70;;;;;;4149887;28;19944;-89
2023/07/21 11:46:12;;;;;;;;;;;19.70;55.10;;;;;;4135117;28;19921;-88
2023/07/21 11:48:15;;;;;;;;;;;19.70;55.00;;;;;;4126692;28;19917;-88
2023/07/21 11:50:17;;;;;;;;;;;19.70;55.10;;;;;;4137412;28;19956;-89
2023/07/21 11:55:14;;;;;;;;;;;19.70;55.10;;;;;;4087307;28;19933;-88